createdAt,value
2023-02-19T00:01:44.113Z,1.10
2023-02-19T00:04:19.409Z,1.45
2023-02-19T00:06:46.658Z,1.67
2023-02-19T00:09:15.121Z,1.60
2023-02-19T00:11:42.115Z,1.98
2023-02-19T00:14:09.278Z,1.92
2023-02-19T00:16:37.948Z,2.55
2023-02-19T00:19:06.615Z,1.90
2023-02-19T00:21:33.454Z,2.28
2023-02-19T00:24:05.169Z,2.35
2023-02-19T00:26:32.062Z,2.72
2023-02-19T00:29:00.013Z,2.85
2023-02-19T00:31:30.425Z,2.65
2023-02-19T00:34:00.307Z,2.92
2023-02-19T00:36:27.744Z,3.35
2023-02-19T00:38:54.896Z,2.90
2023-02-19T00:41:22.456Z,3.60
2023-02-19T00:44:00.473Z,2.92
2023-02-19T00:46:35.145Z,3.42
2023-02-19T00:49:02.337Z,3.50
2023-02-19T00:51:31.601Z,2.88
2023-02-19T00:53:58.726Z,3.28
2023-02-19T00:56:25.504Z,3.22
2023-02-19T00:58:52.566Z,3.20
2023-02-19T01:01:19.413Z,3.20
2023-02-19T01:03:46.717Z,2.72
2023-02-19T01:06:15.034Z,2.63
2023-02-19T01:08:42.199Z,2.80
2023-02-19T01:11:09.572Z,2.80
2023-02-19T01:13:37.041Z,2.78
2023-02-19T01:16:09.519Z,2.40
2023-02-19T01:18:36.591Z,2.20
2023-02-19T01:21:07.637Z,2.42
2023-02-19T01:23:35.396Z,2.65
2023-02-19T01:26:09.438Z,2.53
2023-02-19T01:28:36.533Z,2.35
2023-02-19T01:31:04.397Z,2.42
2023-02-19T01:33:31.522Z,2.88
2023-02-19T01:35:58.343Z,2.72
2023-02-19T01:38:25.475Z,2.33
2023-02-19T01:40:59.631Z,2.35
2023-02-19T01:43:26.684Z,2.60
2023-02-19T01:45:53.661Z,2.00
2023-02-19T01:48:28.184Z,1.48
2023-02-19T01:50:58.996Z,2.10
2023-02-19T01:53:27.352Z,2.10
2023-02-19T01:55:55.788Z,2.30
2023-02-19T01:58:24.449Z,2.22
2023-02-19T02:00:51.870Z,1.75
2023-02-19T02:03:19.388Z,2.13
2023-02-19T02:06:08.136Z,2.00
2023-02-19T02:08:53.850Z,2.08
2023-02-19T02:13:47.850Z,1.60
2023-02-19T02:16:17.812Z,1.42
2023-02-19T02:18:51.722Z,2.13
2023-02-19T02:21:30.522Z,1.70
2023-02-19T02:24:30.003Z,1.85
2023-02-19T02:27:24.837Z,1.98
2023-02-19T02:30:06.188Z,1.63
2023-02-19T02:32:53.612Z,1.52
2023-02-19T02:35:23.563Z,1.65
2023-02-19T02:37:51.085Z,1.95
2023-02-19T02:40:18.897Z,1.63
2023-02-19T02:42:45.648Z,2.17
2023-02-19T02:45:37.311Z,2.17
2023-02-19T02:48:26.272Z,2.40
2023-02-19T02:51:05.011Z,2.35
2023-02-19T02:53:55.935Z,2.25
2023-02-19T02:56:23.075Z,2.28
2023-02-19T02:58:50.016Z,2.53
2023-02-19T03:01:41.270Z,2.40
2023-02-19T03:04:12.250Z,2.60
2023-02-19T03:06:39.669Z,2.67
2023-02-19T03:09:12.043Z,2.40
2023-02-19T03:11:59.255Z,2.38
2023-02-19T03:14:50.342Z,2.30
2023-02-19T03:17:41.351Z,2.38
2023-02-19T03:20:11.203Z,2.50
2023-02-19T03:22:38.460Z,3.08
2023-02-19T03:25:25.348Z,2.53
2023-02-19T03:27:52.515Z,2.47
2023-02-19T03:30:21.547Z,2.92
2023-02-19T03:32:56.934Z,2.60
2023-02-19T03:35:25.958Z,2.17
2023-02-19T03:38:08.073Z,2.58
2023-02-19T03:40:38.660Z,2.72
2023-02-19T03:43:16.751Z,2.55
2023-02-19T03:45:53.384Z,2.58
2023-02-19T03:48:25.540Z,2.13
2023-02-19T03:51:00.736Z,2.58
2023-02-19T03:53:52.223Z,2.70
2023-02-19T03:56:34.012Z,3.00
2023-02-19T03:59:37.411Z,2.88
2023-02-19T04:02:29.274Z,3.00
2023-02-19T04:05:01.899Z,3.47
2023-02-19T04:07:28.706Z,3.20
2023-02-19T04:09:55.772Z,2.67
2023-02-19T04:12:22.507Z,3.60
2023-02-19T04:14:51.480Z,3.55
2023-02-19T04:17:34.521Z,3.03
2023-02-19T04:20:02.678Z,3.25
2023-02-19T04:22:29.416Z,2.65
2023-02-19T04:24:56.742Z,2.92
2023-02-19T04:27:23.523Z,3.15
2023-02-19T04:29:50.633Z,3.65
2023-02-19T04:32:17.385Z,2.75
2023-02-19T04:34:44.519Z,3.08
2023-02-19T04:37:11.477Z,3.03
2023-02-19T04:39:38.601Z,3.67
2023-02-19T04:42:05.583Z,3.35
2023-02-19T04:44:33.572Z,3.28
2023-02-19T04:47:00.878Z,3.42
2023-02-19T04:49:27.976Z,3.67
2023-02-19T04:51:54.688Z,3.20
2023-02-19T04:54:21.809Z,3.45
2023-02-19T04:56:50.696Z,4.28
2023-02-19T04:59:17.890Z,4.63
2023-02-19T05:01:44.680Z,4.88
2023-02-19T05:04:11.794Z,3.72
2023-02-19T05:06:38.571Z,4.65
2023-02-19T05:09:05.616Z,4.82
2023-02-19T05:11:32.424Z,3.85
2023-02-19T05:13:59.656Z,4.47
2023-02-19T05:16:26.408Z,4.68
2023-02-19T05:18:53.508Z,4.68
2023-02-19T05:21:20.329Z,4.55
2023-02-19T05:23:47.374Z,5.35
2023-02-19T05:26:19.095Z,5.40
2023-02-19T05:28:46.713Z,5.53
2023-02-19T05:31:14.051Z,5.70
2023-02-19T05:33:43.056Z,6.45
2023-02-19T05:36:11.558Z,5.70
2023-02-19T05:38:38.717Z,6.07
2023-02-19T05:41:16.532Z,5.78
2023-02-19T05:43:44.540Z,6.20
2023-02-19T05:46:12.862Z,5.55
2023-02-19T05:48:40.039Z,6.18
2023-02-19T05:51:08.674Z,5.97
2023-02-19T05:53:36.100Z,5.80
2023-02-19T05:56:03.045Z,7.18
2023-02-19T05:58:30.318Z,5.60
2023-02-19T06:00:57.255Z,6.53
2023-02-19T06:03:24.403Z,5.80
2023-02-19T06:05:51.164Z,5.88
2023-02-19T06:08:18.317Z,5.70
2023-02-19T06:10:45.298Z,5.78
2023-02-19T06:13:12.344Z,5.07
2023-02-19T06:15:39.243Z,5.50
2023-02-19T06:18:06.307Z,4.20
2023-02-19T06:20:33.146Z,5.18
2023-02-19T06:23:00.238Z,4.47
2023-02-19T06:25:26.993Z,4.30
2023-02-19T06:27:54.154Z,4.88
2023-02-19T06:30:20.943Z,3.80
2023-02-19T06:32:48.078Z,4.32
2023-02-19T06:35:14.802Z,4.40
2023-02-19T06:37:41.922Z,4.07
2023-02-19T06:40:09.046Z,3.75
2023-02-19T06:42:36.113Z,3.42
2023-02-19T06:45:02.896Z,3.50
2023-02-19T06:47:33.456Z,4.00
2023-02-19T06:50:00.462Z,4.05
2023-02-19T06:52:27.609Z,3.58
2023-02-19T06:54:54.366Z,3.90
2023-02-19T06:57:21.470Z,4.05
2023-02-19T06:59:48.289Z,4.28
2023-02-19T07:02:15.427Z,4.53
2023-02-19T07:04:42.195Z,4.63
2023-02-19T07:07:11.848Z,5.38
2023-02-19T07:09:38.587Z,5.25
2023-02-19T07:12:06.014Z,5.22
2023-02-19T07:14:32.936Z,5.45
2023-02-19T07:16:59.978Z,5.18
2023-02-19T07:19:26.871Z,5.43
2023-02-19T07:21:53.972Z,5.90
2023-02-19T07:24:21.691Z,5.97
2023-02-19T07:26:48.767Z,7.53
2023-02-19T07:29:15.637Z,6.78
2023-02-19T07:31:43.161Z,7.63
2023-02-19T07:34:09.925Z,7.57
2023-02-19T07:36:37.018Z,7.72
2023-02-19T07:39:03.864Z,6.93
2023-02-19T07:41:30.931Z,7.95
2023-02-19T07:43:57.743Z,8.05
2023-02-19T07:46:24.951Z,8.10
2023-02-19T07:48:51.736Z,8.68
2023-02-19T07:51:19.692Z,8.50
2023-02-19T07:53:47.067Z,6.97
2023-02-19T07:56:14.377Z,7.70
2023-02-19T07:58:41.305Z,7.75
2023-02-19T08:01:08.756Z,7.85
2023-02-19T08:03:36.909Z,7.30
2023-02-19T08:06:04.713Z,8.65
2023-02-19T08:08:31.505Z,8.77
2023-02-19T08:11:20.878Z,9.10
2023-02-19T08:13:51.454Z,8.52
2023-02-19T08:16:29.763Z,8.90
2023-02-19T08:19:00.235Z,10.38
2023-02-19T08:21:27.318Z,8.75
2023-02-19T08:23:54.132Z,8.93
2023-02-19T08:26:21.260Z,9.32
2023-02-19T08:28:49.558Z,9.70
2023-02-19T08:31:16.828Z,10.57
2023-02-19T08:33:43.719Z,9.43
2023-02-19T08:36:11.016Z,9.73
2023-02-19T08:38:38.020Z,8.77
2023-02-19T08:41:10.281Z,8.57
2023-02-19T08:43:37.241Z,9.77
2023-02-19T08:46:04.634Z,9.05
2023-02-19T08:48:31.457Z,10.40
2023-02-19T08:51:00.478Z,10.70
2023-02-19T08:53:27.315Z,10.32
2023-02-19T08:55:54.436Z,10.80
2023-02-19T08:58:21.388Z,9.82
2023-02-19T09:00:48.580Z,10.68
2023-02-19T09:03:15.304Z,10.90
2023-02-19T09:05:42.402Z,11.60
2023-02-19T09:08:09.409Z,10.88
2023-02-19T09:10:36.556Z,11.80
2023-02-19T09:13:03.462Z,13.07
2023-02-19T09:15:31.236Z,13.82
2023-02-19T09:17:58.095Z,13.88
2023-02-19T09:20:25.205Z,14.13
2023-02-19T09:22:56.924Z,13.13
2023-02-19T09:25:24.499Z,13.98
2023-02-19T09:27:54.846Z,12.93
2023-02-19T09:30:21.986Z,12.52
2023-02-19T09:32:48.806Z,13.00
2023-02-19T09:35:15.927Z,12.23
2023-02-19T09:37:42.679Z,11.60
2023-02-19T09:40:10.147Z,11.50
2023-02-19T09:42:37.043Z,10.45
2023-02-19T09:45:04.261Z,9.40
2023-02-19T09:47:31.828Z,8.80
2023-02-19T09:50:09.617Z,7.90
2023-02-19T09:52:45.693Z,6.97
2023-02-19T09:55:29.302Z,7.03
2023-02-19T09:57:56.631Z,7.20
2023-02-19T10:00:28.100Z,7.03
2023-02-19T10:02:59.623Z,5.78
2023-02-19T10:05:26.865Z,5.70
2023-02-19T10:07:54.208Z,5.45
2023-02-19T10:10:30.282Z,5.20
2023-02-19T10:13:19.775Z,5.32
2023-02-19T10:15:57.813Z,5.32
2023-02-19T10:18:28.342Z,4.80
2023-02-19T10:20:55.848Z,4.28
2023-02-19T10:23:22.649Z,4.93
2023-02-19T10:25:54.391Z,4.22
2023-02-19T10:28:22.820Z,4.47
2023-02-19T10:30:56.247Z,4.53
2023-02-19T10:33:23.260Z,4.30
2023-02-19T10:36:16.198Z,4.35
2023-02-19T10:38:46.541Z,4.13
2023-02-19T10:41:20.806Z,4.32
2023-02-19T10:43:53.655Z,4.40
2023-02-19T10:46:20.714Z,4.35
2023-02-19T10:48:53.560Z,3.78
2023-02-19T10:51:25.418Z,4.13
2023-02-19T10:54:02.896Z,4.28
2023-02-19T10:56:31.389Z,4.93
2023-02-19T10:59:23.147Z,4.75
2023-02-19T11:01:54.576Z,4.10
2023-02-19T11:04:21.491Z,4.60
2023-02-19T11:06:48.638Z,4.75
2023-02-19T11:09:31.083Z,4.80
2023-02-19T11:11:59.523Z,4.40
2023-02-19T11:14:26.690Z,4.13
2023-02-19T11:16:57.528Z,3.50
2023-02-19T11:19:27.577Z,3.55
2023-02-19T11:21:54.947Z,3.45
2023-02-19T11:24:29.048Z,3.53
2023-02-19T11:26:56.644Z,3.50
2023-02-19T11:29:24.627Z,2.75
2023-02-19T11:31:51.855Z,2.33
2023-02-19T11:34:21.397Z,2.70
2023-02-19T11:36:53.599Z,2.38
2023-02-19T11:39:22.928Z,3.05
2023-02-19T11:42:21.929Z,3.08
2023-02-19T11:45:01.067Z,3.00
2023-02-19T11:48:05.343Z,3.67
2023-02-19T11:50:59.641Z,5.97
2023-02-19T11:53:33.967Z,5.05
2023-02-19T11:56:16.895Z,5.72
2023-02-19T11:59:00.821Z,5.95
2023-02-19T12:01:33.697Z,5.60
2023-02-19T12:04:19.172Z,5.78
2023-02-19T12:07:17.597Z,6.22
2023-02-19T12:10:06.052Z,4.93
2023-02-19T12:12:39.121Z,4.88
2023-02-19T12:15:15.461Z,3.90
2023-02-19T12:17:54.173Z,4.45
2023-02-19T12:20:42.579Z,4.35
2023-02-19T12:23:48.010Z,3.80
2023-02-19T12:26:27.820Z,4.25
2023-02-19T12:29:32.177Z,3.30
2023-02-19T12:32:21.189Z,3.92
2023-02-19T12:34:51.057Z,3.80
2023-02-19T12:37:32.524Z,4.07
2023-02-19T12:40:28.067Z,3.50
2023-02-19T12:43:04.086Z,4.07
2023-02-19T12:45:53.085Z,3.92
2023-02-19T12:48:26.373Z,3.47
2023-02-19T12:51:01.209Z,3.20
2023-02-19T12:53:33.824Z,3.60
2023-02-19T12:56:00.971Z,3.05
2023-02-19T12:58:55.872Z,3.40
2023-02-19T13:01:28.524Z,3.28
2023-02-19T13:04:35.308Z,3.58
2023-02-19T13:07:08.806Z,4.10
2023-02-19T13:09:57.026Z,3.40
2023-02-19T13:12:26.435Z,3.10
2023-02-19T13:15:01.363Z,3.38
2023-02-19T13:17:47.990Z,3.10
2023-02-19T13:20:37.194Z,2.88
2023-02-19T13:23:32.074Z,3.22
2023-02-19T13:26:18.093Z,3.15
2023-02-19T13:29:00.554Z,3.30
2023-02-19T13:32:00.647Z,3.33
2023-02-19T13:35:05.340Z,3.03
2023-02-19T13:37:34.410Z,3.20
2023-02-19T13:40:05.328Z,2.45
2023-02-19T13:42:34.272Z,3.13
2023-02-19T13:45:05.492Z,2.50
2023-02-19T13:47:54.537Z,3.05
2023-02-19T13:50:26.408Z,3.00
2023-02-19T13:52:54.998Z,2.97
2023-02-19T13:55:44.465Z,3.40
2023-02-19T13:58:33.536Z,3.10
2023-02-19T14:01:01.723Z,3.42
2023-02-19T14:03:52.076Z,3.17
2023-02-19T14:06:19.019Z,3.50
2023-02-19T14:08:58.707Z,4.35
2023-02-19T14:11:51.853Z,3.33
2023-02-19T14:14:41.748Z,3.85
2023-02-19T14:17:08.574Z,3.78
2023-02-19T14:19:41.819Z,3.47
2023-02-19T14:22:45.965Z,4.03
2023-02-19T14:25:31.373Z,3.63
2023-02-19T14:28:10.311Z,4.15
2023-02-19T14:30:55.897Z,3.72
2023-02-19T14:33:33.286Z,4.03
2023-02-19T14:36:06.535Z,4.43
2023-02-19T14:38:39.317Z,3.45
2023-02-19T14:41:06.464Z,4.75
2023-02-19T14:43:33.438Z,3.78
2023-02-19T14:46:02.137Z,4.28
2023-02-19T14:48:34.778Z,4.13
2023-02-19T14:51:07.987Z,4.50
2023-02-19T14:53:40.521Z,3.88
2023-02-19T14:56:07.746Z,3.63
2023-02-19T14:58:36.942Z,3.63
2023-02-19T15:01:05.572Z,3.70
2023-02-19T15:03:34.484Z,4.10
2023-02-19T15:06:05.956Z,4.20
2023-02-19T15:08:42.434Z,3.95
2023-02-19T15:11:16.549Z,3.88
2023-02-19T15:13:45.802Z,4.15
2023-02-19T15:16:18.208Z,4.35
2023-02-19T15:18:46.492Z,4.45
2023-02-19T15:21:21.477Z,4.40
2023-02-19T15:23:48.241Z,3.38
2023-02-19T15:26:20.234Z,3.08
2023-02-19T15:28:47.039Z,3.63
2023-02-19T15:31:15.582Z,3.08
2023-02-19T15:33:50.439Z,3.92
2023-02-19T15:36:29.887Z,3.65
2023-02-19T15:38:58.497Z,3.10
2023-02-19T15:41:28.437Z,3.20
2023-02-19T15:44:36.546Z,4.20
2023-02-19T15:47:11.481Z,3.60
2023-02-19T15:49:55.591Z,3.60
2023-02-19T15:52:41.450Z,3.67
2023-02-19T15:55:17.607Z,3.28
2023-02-19T15:57:47.253Z,3.70
2023-02-19T16:00:24.241Z,4.15
2023-02-19T16:02:51.443Z,3.10
2023-02-19T16:05:26.415Z,4.05
2023-02-19T16:08:07.141Z,3.55
2023-02-19T16:10:34.026Z,3.13
2023-02-19T16:13:02.665Z,3.63
2023-02-19T16:15:30.502Z,3.30
2023-02-19T16:17:57.659Z,3.40
2023-02-19T16:20:28.285Z,3.60
2023-02-19T16:23:00.918Z,3.72
2023-02-19T16:25:37.550Z,3.38
2023-02-19T16:28:33.574Z,3.00
2023-02-19T16:31:07.582Z,3.53
2023-02-19T16:33:48.200Z,3.33
2023-02-19T16:36:34.424Z,3.30
2023-02-19T16:39:07.636Z,3.33
2023-02-19T16:41:35.036Z,3.30
2023-02-19T16:44:06.585Z,3.22
2023-02-19T16:46:33.392Z,3.33
2023-02-19T16:49:00.519Z,3.10
2023-02-19T16:51:27.366Z,3.65
2023-02-19T16:53:54.465Z,3.50
2023-02-19T16:56:23.123Z,3.38
2023-02-19T16:58:50.509Z,3.92
2023-02-19T17:01:17.779Z,3.83
2023-02-19T17:03:45.195Z,3.50
2023-02-19T17:06:12.093Z,4.65
2023-02-19T17:08:43.183Z,4.28
2023-02-19T17:11:14.882Z,4.95
2023-02-19T17:13:42.479Z,5.00
2023-02-19T17:16:13.512Z,5.03
2023-02-19T17:18:40.557Z,4.43
2023-02-19T17:21:15.169Z,5.10
2023-02-19T17:23:42.428Z,5.80
2023-02-19T17:26:14.813Z,5.88
2023-02-19T17:28:41.874Z,5.90
2023-02-19T17:31:10.638Z,6.20
2023-02-19T17:33:38.606Z,7.25
2023-02-19T17:36:05.856Z,7.85
2023-02-19T17:38:33.020Z,7.97
2023-02-19T17:40:59.787Z,8.57
2023-02-19T17:43:26.906Z,9.18
2023-02-19T17:45:53.727Z,9.25
2023-02-19T17:48:20.820Z,9.93
2023-02-19T17:50:50.321Z,9.38
2023-02-19T17:53:17.348Z,9.70
2023-02-19T17:55:44.432Z,10.20
2023-02-19T17:58:11.758Z,10.32
2023-02-19T18:00:38.630Z,9.52
2023-02-19T18:03:07.596Z,10.43
2023-02-19T18:05:34.449Z,9.93
2023-02-19T18:08:01.524Z,10.02
2023-02-19T18:10:28.386Z,9.93
2023-02-19T18:12:55.559Z,10.15
2023-02-19T18:15:24.194Z,10.48
2023-02-19T18:17:51.315Z,10.60
2023-02-19T18:20:22.955Z,9.60
2023-02-19T18:22:50.096Z,10.13
2023-02-19T18:25:17.311Z,11.25
2023-02-19T18:27:44.602Z,10.88
2023-02-19T18:30:12.273Z,10.10
2023-02-19T18:32:39.787Z,9.88
2023-02-19T18:35:07.152Z,11.73
2023-02-19T18:37:35.524Z,10.65
2023-02-19T18:40:04.168Z,11.65
2023-02-19T18:42:31.414Z,13.20
2023-02-19T18:44:58.366Z,13.30
2023-02-19T18:47:25.738Z,13.05
2023-02-19T18:49:54.145Z,14.90
2023-02-19T18:52:21.778Z,16.13
2023-02-19T18:54:49.389Z,15.20
2023-02-19T18:57:16.583Z,15.90
2023-02-19T18:59:43.454Z,16.27
2023-02-19T19:02:10.694Z,16.00
2023-02-19T19:04:38.189Z,14.68
2023-02-19T19:07:05.733Z,16.58
2023-02-19T19:09:33.202Z,15.32
2023-02-19T19:12:00.475Z,16.35
2023-02-19T19:14:27.376Z,14.85
2023-02-19T19:16:54.533Z,16.33
2023-02-19T19:19:21.389Z,15.48
2023-02-19T19:21:54.774Z,15.00
2023-02-19T19:24:22.278Z,16.40
2023-02-19T19:26:50.022Z,15.38
2023-02-19T19:29:18.058Z,15.32
2023-02-19T19:31:45.320Z,16.52
2023-02-19T19:34:12.316Z,15.30
2023-02-19T19:36:39.483Z,15.00
2023-02-19T19:39:06.739Z,15.55
2023-02-19T19:41:33.883Z,14.77
2023-02-19T19:44:04.873Z,14.80
2023-02-19T19:46:32.601Z,16.52
2023-02-19T19:48:59.429Z,16.35
2023-02-19T19:51:33.539Z,15.80
2023-02-19T19:54:01.188Z,18.77
2023-02-19T19:56:28.343Z,18.42
2023-02-19T19:58:55.167Z,18.20
2023-02-19T20:01:23.285Z,18.08
2023-02-19T20:03:51.213Z,18.60
2023-02-19T20:06:28.696Z,17.60
2023-02-19T20:08:55.704Z,16.70
2023-02-19T20:11:23.314Z,18.60
2023-02-19T20:13:50.155Z,17.70
2023-02-19T20:16:17.343Z,15.60
2023-02-19T20:18:44.196Z,17.10
2023-02-19T20:21:11.778Z,16.40
2023-02-19T20:23:39.805Z,15.55
2023-02-19T20:26:07.195Z,13.73
2023-02-19T20:28:34.029Z,15.27
2023-02-19T20:31:01.443Z,13.65
2023-02-19T20:33:28.465Z,13.32
2023-02-19T20:35:56.969Z,13.98
2023-02-19T20:38:23.799Z,13.50
2023-02-19T20:40:50.966Z,12.60
2023-02-19T20:43:17.820Z,12.93
2023-02-19T20:45:46.502Z,11.32
2023-02-19T20:48:17.982Z,12.70
2023-02-19T20:50:45.156Z,11.73
2023-02-19T20:53:12.050Z,11.32
2023-02-19T20:55:39.294Z,10.82
2023-02-19T20:58:06.105Z,10.77
2023-02-19T21:00:33.221Z,10.50
2023-02-19T21:03:00.075Z,10.98
2023-02-19T21:05:27.596Z,10.60
2023-02-19T21:07:54.420Z,10.15
2023-02-19T21:10:22.059Z,10.48
2023-02-19T21:12:50.637Z,9.77
2023-02-19T21:15:18.001Z,9.45
2023-02-19T21:17:45.667Z,9.57
2023-02-19T21:20:13.654Z,9.45
2023-02-19T21:22:40.646Z,9.50
2023-02-19T21:25:07.884Z,9.70
2023-02-19T21:27:34.697Z,10.82
2023-02-19T21:30:01.875Z,9.73
2023-02-19T21:32:28.712Z,9.57
2023-02-19T21:34:55.903Z,10.20
2023-02-19T21:37:22.759Z,10.10
2023-02-19T21:39:49.879Z,9.88
2023-02-19T21:42:16.736Z,9.85
2023-02-19T21:44:43.800Z,10.15
2023-02-19T21:47:12.282Z,9.32
2023-02-19T21:49:41.796Z,9.18
2023-02-19T21:52:08.815Z,11.13
2023-02-19T21:54:35.938Z,11.40
2023-02-19T21:57:03.251Z,10.05
2023-02-19T21:59:30.335Z,9.90
2023-02-19T22:01:57.279Z,11.18
2023-02-19T22:04:24.656Z,11.20
2023-02-19T22:06:54.799Z,11.60
2023-02-19T22:09:21.900Z,11.15
2023-02-19T22:11:48.752Z,10.82
2023-02-19T22:14:16.209Z,11.90
2023-02-19T22:16:43.005Z,12.10
2023-02-19T22:19:12.053Z,12.80
2023-02-19T22:21:42.292Z,13.05
2023-02-19T22:24:20.112Z,13.32
2023-02-19T22:26:47.360Z,12.85
2023-02-19T22:29:14.973Z,13.15
2023-02-19T22:31:42.076Z,13.93
2023-02-19T22:34:09.485Z,14.07
2023-02-19T22:36:39.817Z,13.48
2023-02-19T22:39:08.030Z,14.23
2023-02-19T22:41:34.787Z,13.70
2023-02-19T22:44:01.905Z,12.82
2023-02-19T22:46:29.625Z,13.90
2023-02-19T22:48:56.943Z,14.50
2023-02-19T22:51:23.912Z,13.60
2023-02-19T22:53:53.006Z,14.25
2023-02-19T22:56:20.572Z,13.35
2023-02-19T22:58:47.690Z,13.40
2023-02-19T23:01:14.704Z,13.30
2023-02-19T23:03:58.397Z,13.38
2023-02-19T23:06:27.298Z,12.90
2023-02-19T23:08:55.093Z,13.07
2023-02-19T23:11:23.546Z,13.20
2023-02-19T23:13:50.790Z,12.90
2023-02-19T23:16:17.633Z,12.88
2023-02-19T23:18:44.745Z,12.15
2023-02-19T23:21:11.631Z,13.00
2023-02-19T23:23:41.556Z,12.48
2023-02-19T23:26:08.560Z,12.40
2023-02-19T23:28:35.627Z,11.38
2023-02-19T23:31:02.438Z,12.35
2023-02-19T23:33:29.510Z,11.80
2023-02-19T23:35:56.315Z,11.23
2023-02-19T23:38:23.360Z,13.48
2023-02-19T23:40:50.151Z,12.38
2023-02-19T23:43:17.189Z,11.13
2023-02-19T23:45:43.982Z,11.00
2023-02-19T23:48:11.096Z,10.80
2023-02-19T23:50:37.821Z,10.75
2023-02-19T23:53:05.001Z,10.40
2023-02-19T23:55:31.738Z,10.55
2023-02-19T23:57:58.804Z,9.98
